sensor_id;sensor_type;location;lat;lon;timestamp;P1;durP1;ratioP1;P2;durP2;ratioP2
33672;SDS011;20011;51.510;9.942;2022-12-15T00:01:58;32.15;;;14.02;;
33672;SDS011;20011;51.510;9.942;2022-12-15T00:04:45;28.08;;;13.05;;
33672;SDS011;20011;51.510;9.942;2022-12-15T00:07:31;28.65;;;13.00;;
33672;SDS011;20011;51.510;9.942;2022-12-15T00:10:17;33.92;;;13.80;;
33672;SDS011;20011;51.510;9.942;2022-12-15T00:13:09;33.17;;;13.32;;
33672;SDS011;20011;51.510;9.942;2022-12-15T00:15:56;27.33;;;11.02;;
33672;SDS011;20011;51.510;9.942;2022-12-15T00:18:42;24.85;;;12.73;;
33672;SDS011;20011;51.510;9.942;2022-12-15T00:21:28;28.08;;;12.27;;
33672;SDS011;20011;51.510;9.942;2022-12-15T00:24:13;24.58;;;11.70;;
33672;SDS011;20011;51.510;9.942;2022-12-15T00:26:59;26.13;;;11.70;;
33672;SDS011;20011;51.510;9.942;2022-12-15T00:29:45;26.10;;;13.65;;
33672;SDS011;20011;51.510;9.942;2022-12-15T00:32:30;32.10;;;11.50;;
33672;SDS011;20011;51.510;9.942;2022-12-15T00:35:16;26.58;;;13.05;;
33672;SDS011;20011;51.510;9.942;2022-12-15T00:38:06;27.98;;;14.35;;
33672;SDS011;20011;51.510;9.942;2022-12-15T00:40:53;27.98;;;14.73;;
33672;SDS011;20011;51.510;9.942;2022-12-15T00:43:28;28.98;;;13.68;;
33672;SDS011;20011;51.510;9.942;2022-12-15T00:45:56;28.55;;;14.10;;
33672;SDS011;20011;51.510;9.942;2022-12-15T00:48:43;30.95;;;14.30;;
33672;SDS011;20011;51.510;9.942;2022-12-15T00:51:10;26.45;;;12.90;;
33672;SDS011;20011;51.510;9.942;2022-12-15T00:53:38;27.48;;;13.60;;
33672;SDS011;20011;51.510;9.942;2022-12-15T00:56:23;29.20;;;13.98;;
33672;SDS011;20011;51.510;9.942;2022-12-15T00:59:10;30.85;;;13.35;;
33672;SDS011;20011;51.510;9.942;2022-12-15T01:01:57;36.35;;;14.30;;
33672;SDS011;20011;51.510;9.942;2022-12-15T01:04:44;28.27;;;12.57;;
33672;SDS011;20011;51.510;9.942;2022-12-15T01:07:30;36.00;;;14.50;;
33672;SDS011;20011;51.510;9.942;2022-12-15T01:10:17;32.95;;;13.45;;
33672;SDS011;20011;51.510;9.942;2022-12-15T01:13:03;32.10;;;13.82;;
33672;SDS011;20011;51.510;9.942;2022-12-15T01:15:49;26.67;;;13.48;;
33672;SDS011;20011;51.510;9.942;2022-12-15T01:18:35;25.42;;;12.85;;
33672;SDS011;20011;51.510;9.942;2022-12-15T01:21:21;25.90;;;12.82;;
33672;SDS011;20011;51.510;9.942;2022-12-15T01:23:51;27.05;;;13.38;;
33672;SDS011;20011;51.510;9.942;2022-12-15T01:26:18;28.13;;;14.35;;
33672;SDS011;20011;51.510;9.942;2022-12-15T01:28:45;28.23;;;13.25;;
33672;SDS011;20011;51.510;9.942;2022-12-15T01:31:13;26.63;;;12.63;;
33672;SDS011;20011;51.510;9.942;2022-12-15T01:33:40;30.25;;;13.43;;
33672;SDS011;20011;51.510;9.942;2022-12-15T01:36:09;29.05;;;13.65;;
33672;SDS011;20011;51.510;9.942;2022-12-15T01:38:36;25.90;;;13.05;;
33672;SDS011;20011;51.510;9.942;2022-12-15T01:41:05;28.67;;;13.02;;
33672;SDS011;20011;51.510;9.942;2022-12-15T01:43:36;28.25;;;13.77;;
33672;SDS011;20011;51.510;9.942;2022-12-15T01:46:11;28.67;;;12.27;;
33672;SDS011;20011;51.510;9.942;2022-12-15T01:51:25;31.77;;;14.13;;
33672;SDS011;20011;51.510;9.942;2022-12-15T01:56:26;26.45;;;12.57;;
33672;SDS011;20011;51.510;9.942;2022-12-15T01:59:03;27.50;;;13.13;;
33672;SDS011;20011;51.510;9.942;2022-12-15T02:01:31;32.15;;;14.30;;
33672;SDS011;20011;51.510;9.942;2022-12-15T02:03:58;28.30;;;13.40;;
33672;SDS011;20011;51.510;9.942;2022-12-15T02:06:26;27.85;;;13.32;;
33672;SDS011;20011;51.510;9.942;2022-12-15T02:08:54;24.77;;;11.82;;
33672;SDS011;20011;51.510;9.942;2022-12-15T02:13:59;28.42;;;12.70;;
33672;SDS011;20011;51.510;9.942;2022-12-15T02:26:53;24.42;;;11.32;;
33672;SDS011;20011;51.510;9.942;2022-12-15T02:32:54;21.80;;;8.77;;
33672;SDS011;20011;51.510;9.942;2022-12-15T02:37:54;17.60;;;9.55;;
33672;SDS011;20011;51.510;9.942;2022-12-15T02:40:22;20.55;;;9.57;;
33672;SDS011;20011;51.510;9.942;2022-12-15T02:42:50;21.48;;;11.32;;
33672;SDS011;20011;51.510;9.942;2022-12-15T02:45:28;22.98;;;11.40;;
33672;SDS011;20011;51.510;9.942;2022-12-15T02:48:11;19.83;;;9.13;;
33672;SDS011;20011;51.510;9.942;2022-12-15T03:03:53;25.95;;;10.63;;
33672;SDS011;20011;51.510;9.942;2022-12-15T03:06:23;19.58;;;11.18;;
33672;SDS011;20011;51.510;9.942;2022-12-15T03:08:51;22.75;;;9.52;;
33672;SDS011;20011;51.510;9.942;2022-12-15T03:11:18;25.35;;;10.77;;
33672;SDS011;20011;51.510;9.942;2022-12-15T03:13:45;23.95;;;10.95;;
33672;SDS011;20011;51.510;9.942;2022-12-15T03:16:15;18.27;;;9.80;;
33672;SDS011;20011;51.510;9.942;2022-12-15T03:18:42;22.02;;;10.88;;
33672;SDS011;20011;51.510;9.942;2022-12-15T03:21:09;23.48;;;10.70;;
33672;SDS011;20011;51.510;9.942;2022-12-15T03:23:37;21.95;;;10.65;;
33672;SDS011;20011;51.510;9.942;2022-12-15T03:26:04;23.60;;;10.32;;
33672;SDS011;20011;51.510;9.942;2022-12-15T03:28:32;18.52;;;9.65;;
33672;SDS011;20011;51.510;9.942;2022-12-15T03:30:59;26.50;;;10.68;;
33672;SDS011;20011;51.510;9.942;2022-12-15T03:33:26;20.95;;;10.13;;
33672;SDS011;20011;51.510;9.942;2022-12-15T03:35:54;25.08;;;10.80;;
33672;SDS011;20011;51.510;9.942;2022-12-15T03:38:22;21.48;;;10.13;;
33672;SDS011;20011;51.510;9.942;2022-12-15T03:40:49;22.33;;;8.93;;
33672;SDS011;20011;51.510;9.942;2022-12-15T03:43:16;26.95;;;11.07;;
33672;SDS011;20011;51.510;9.942;2022-12-15T03:45:44;23.70;;;10.57;;
33672;SDS011;20011;51.510;9.942;2022-12-15T03:48:11;23.50;;;11.20;;
33672;SDS011;20011;51.510;9.942;2022-12-15T03:50:38;22.58;;;10.88;;
33672;SDS011;20011;51.510;9.942;2022-12-15T03:53:06;21.20;;;9.63;;
33672;SDS011;20011;51.510;9.942;2022-12-15T03:55:33;19.02;;;8.85;;
33672;SDS011;20011;51.510;9.942;2022-12-15T03:58:01;25.05;;;11.23;;
33672;SDS011;20011;51.510;9.942;2022-12-15T04:00:28;21.25;;;8.98;;
33672;SDS011;20011;51.510;9.942;2022-12-15T04:02:55;20.17;;;10.13;;
33672;SDS011;20011;51.510;9.942;2022-12-15T04:05:25;19.25;;;10.05;;
33672;SDS011;20011;51.510;9.942;2022-12-15T04:07:53;18.75;;;9.77;;
33672;SDS011;20011;51.510;9.942;2022-12-15T04:10:21;20.52;;;10.10;;
33672;SDS011;20011;51.510;9.942;2022-12-15T04:12:56;29.00;;;10.25;;
33672;SDS011;20011;51.510;9.942;2022-12-15T04:15:34;23.23;;;10.23;;
33672;SDS011;20011;51.510;9.942;2022-12-15T04:18:05;21.83;;;10.63;;
33672;SDS011;20011;51.510;9.942;2022-12-15T04:20:36;22.35;;;10.13;;
33672;SDS011;20011;51.510;9.942;2022-12-15T04:23:04;24.20;;;10.35;;
33672;SDS011;20011;51.510;9.942;2022-12-15T04:25:35;23.67;;;10.55;;
33672;SDS011;20011;51.510;9.942;2022-12-15T04:28:21;22.85;;;10.35;;
33672;SDS011;20011;51.510;9.942;2022-12-15T04:31:08;27.55;;;11.25;;
33672;SDS011;20011;51.510;9.942;2022-12-15T04:34:03;30.65;;;11.48;;
33672;SDS011;20011;51.510;9.942;2022-12-15T04:36:51;28.17;;;11.05;;
33672;SDS011;20011;51.510;9.942;2022-12-15T04:39:38;25.77;;;11.30;;
33672;SDS011;20011;51.510;9.942;2022-12-15T04:42:28;27.95;;;11.43;;
33672;SDS011;20011;51.510;9.942;2022-12-15T04:45:16;28.40;;;10.88;;
33672;SDS011;20011;51.510;9.942;2022-12-15T04:48:05;17.92;;;10.20;;
33672;SDS011;20011;51.510;9.942;2022-12-15T04:50:51;19.65;;;10.45;;
33672;SDS011;20011;51.510;9.942;2022-12-15T04:53:36;22.42;;;10.73;;
33672;SDS011;20011;51.510;9.942;2022-12-15T04:56:23;22.83;;;10.27;;
33672;SDS011;20011;51.510;9.942;2022-12-15T04:59:08;24.15;;;10.52;;
33672;SDS011;20011;51.510;9.942;2022-12-15T05:01:54;26.77;;;11.38;;
33672;SDS011;20011;51.510;9.942;2022-12-15T05:04:40;18.92;;;9.45;;
33672;SDS011;20011;51.510;9.942;2022-12-15T05:07:26;19.45;;;9.48;;
33672;SDS011;20011;51.510;9.942;2022-12-15T05:10:12;23.95;;;11.00;;
33672;SDS011;20011;51.510;9.942;2022-12-15T05:13:04;22.58;;;10.45;;
33672;SDS011;20011;51.510;9.942;2022-12-15T05:15:51;21.65;;;10.02;;
33672;SDS011;20011;51.510;9.942;2022-12-15T05:18:38;24.67;;;10.52;;
33672;SDS011;20011;51.510;9.942;2022-12-15T05:21:24;20.27;;;10.73;;
33672;SDS011;20011;51.510;9.942;2022-12-15T05:24:10;19.23;;;9.57;;
33672;SDS011;20011;51.510;9.942;2022-12-15T05:26:56;24.80;;;10.23;;
33672;SDS011;20011;51.510;9.942;2022-12-15T05:29:42;25.50;;;10.70;;
33672;SDS011;20011;51.510;9.942;2022-12-15T05:32:30;25.17;;;9.27;;
33672;SDS011;20011;51.510;9.942;2022-12-15T05:34:58;22.73;;;9.93;;
33672;SDS011;20011;51.510;9.942;2022-12-15T05:37:26;18.50;;;10.20;;
33672;SDS011;20011;51.510;9.942;2022-12-15T05:39:54;19.73;;;9.77;;
33672;SDS011;20011;51.510;9.942;2022-12-15T05:42:21;18.48;;;9.38;;
33672;SDS011;20011;51.510;9.942;2022-12-15T05:44:48;20.92;;;9.73;;
33672;SDS011;20011;51.510;9.942;2022-12-15T05:47:16;20.85;;;10.20;;
33672;SDS011;20011;51.510;9.942;2022-12-15T05:49:43;23.45;;;10.25;;
33672;SDS011;20011;51.510;9.942;2022-12-15T05:52:11;26.63;;;10.73;;
33672;SDS011;20011;51.510;9.942;2022-12-15T05:54:38;22.83;;;11.27;;
33672;SDS011;20011;51.510;9.942;2022-12-15T05:57:06;24.08;;;11.20;;
33672;SDS011;20011;51.510;9.942;2022-12-15T05:59:33;24.55;;;11.32;;
33672;SDS011;20011;51.510;9.942;2022-12-15T06:02:00;26.92;;;12.70;;
33672;SDS011;20011;51.510;9.942;2022-12-15T06:04:28;29.70;;;12.18;;
33672;SDS011;20011;51.510;9.942;2022-12-15T06:06:55;21.42;;;11.82;;
33672;SDS011;20011;51.510;9.942;2022-12-15T06:09:23;30.30;;;13.13;;
33672;SDS011;20011;51.510;9.942;2022-12-15T06:11:50;32.50;;;13.07;;
33672;SDS011;20011;51.510;9.942;2022-12-15T06:14:17;27.80;;;13.48;;
33672;SDS011;20011;51.510;9.942;2022-12-15T06:16:45;27.38;;;13.77;;
33672;SDS011;20011;51.510;9.942;2022-12-15T06:19:16;34.30;;;14.30;;
33672;SDS011;20011;51.510;9.942;2022-12-15T06:21:45;30.05;;;14.15;;
33672;SDS011;20011;51.510;9.942;2022-12-15T06:24:12;31.88;;;15.13;;
33672;SDS011;20011;51.510;9.942;2022-12-15T06:26:39;25.88;;;12.70;;
33672;SDS011;20011;51.510;9.942;2022-12-15T06:29:08;32.20;;;15.30;;
33672;SDS011;20011;51.510;9.942;2022-12-15T06:31:36;34.95;;;15.48;;
33672;SDS011;20011;51.510;9.942;2022-12-15T06:34:10;28.50;;;14.10;;
33672;SDS011;20011;51.510;9.942;2022-12-15T06:36:39;28.30;;;13.23;;
33672;SDS011;20011;51.510;9.942;2022-12-15T06:39:07;31.80;;;13.38;;
33672;SDS011;20011;51.510;9.942;2022-12-15T06:44:04;26.63;;;12.57;;
33672;SDS011;20011;51.510;9.942;2022-12-15T06:46:31;23.25;;;11.18;;
33672;SDS011;20011;51.510;9.942;2022-12-15T06:49:02;31.45;;;13.48;;
33672;SDS011;20011;51.510;9.942;2022-12-15T06:51:30;21.15;;;10.88;;
33672;SDS011;20011;51.510;9.942;2022-12-15T06:53:58;26.50;;;13.43;;
33672;SDS011;20011;51.510;9.942;2022-12-15T06:56:26;34.80;;;14.85;;
33672;SDS011;20011;51.510;9.942;2022-12-15T06:59:00;32.90;;;13.65;;
33672;SDS011;20011;51.510;9.942;2022-12-15T07:01:29;25.08;;;12.85;;
33672;SDS011;20011;51.510;9.942;2022-12-15T07:03:56;29.52;;;12.90;;
33672;SDS011;20011;51.510;9.942;2022-12-15T07:06:31;25.63;;;11.65;;
33672;SDS011;20011;51.510;9.942;2022-12-15T07:09:02;32.05;;;14.02;;
33672;SDS011;20011;51.510;9.942;2022-12-15T07:11:29;29.65;;;13.80;;
33672;SDS011;20011;51.510;9.942;2022-12-15T07:13:57;30.90;;;14.98;;
33672;SDS011;20011;51.510;9.942;2022-12-15T07:16:24;45.28;;;18.55;;
33672;SDS011;20011;51.510;9.942;2022-12-15T07:18:52;45.25;;;18.85;;
33672;SDS011;20011;51.510;9.942;2022-12-15T07:21:19;39.85;;;18.67;;
33672;SDS011;20011;51.510;9.942;2022-12-15T07:23:46;34.53;;;15.23;;
33672;SDS011;20011;51.510;9.942;2022-12-15T07:26:23;30.20;;;14.50;;
33672;SDS011;20011;51.510;9.942;2022-12-15T07:28:51;36.08;;;14.75;;
33672;SDS011;20011;51.510;9.942;2022-12-15T07:31:19;38.70;;;17.30;;
33672;SDS011;20011;51.510;9.942;2022-12-15T07:33:47;36.22;;;18.17;;
33672;SDS011;20011;51.510;9.942;2022-12-15T07:36:14;41.47;;;18.17;;
33672;SDS011;20011;51.510;9.942;2022-12-15T07:38:42;43.20;;;18.92;;
33672;SDS011;20011;51.510;9.942;2022-12-15T07:41:16;39.55;;;16.33;;
33672;SDS011;20011;51.510;9.942;2022-12-15T07:43:45;34.85;;;16.48;;
33672;SDS011;20011;51.510;9.942;2022-12-15T07:46:13;33.63;;;15.20;;
33672;SDS011;20011;51.510;9.942;2022-12-15T07:48:41;39.15;;;15.68;;
33672;SDS011;20011;51.510;9.942;2022-12-15T07:51:08;27.63;;;13.07;;
33672;SDS011;20011;51.510;9.942;2022-12-15T07:53:45;29.83;;;12.77;;
33672;SDS011;20011;51.510;9.942;2022-12-15T07:56:12;34.03;;;14.18;;
33672;SDS011;20011;51.510;9.942;2022-12-15T07:58:40;28.23;;;12.65;;
33672;SDS011;20011;51.510;9.942;2022-12-15T08:01:10;31.40;;;14.98;;
33672;SDS011;20011;51.510;9.942;2022-12-15T08:03:38;40.35;;;16.20;;
33672;SDS011;20011;51.510;9.942;2022-12-15T08:06:10;35.13;;;15.95;;
33672;SDS011;20011;51.510;9.942;2022-12-15T08:08:42;36.15;;;14.75;;
33672;SDS011;20011;51.510;9.942;2022-12-15T08:11:16;25.17;;;13.27;;
33672;SDS011;20011;51.510;9.942;2022-12-15T08:13:44;34.35;;;15.13;;
33672;SDS011;20011;51.510;9.942;2022-12-15T08:16:29;37.55;;;15.00;;
33672;SDS011;20011;51.510;9.942;2022-12-15T08:18:58;33.00;;;16.10;;
33672;SDS011;20011;51.510;9.942;2022-12-15T08:21:26;30.20;;;13.73;;
33672;SDS011;20011;51.510;9.942;2022-12-15T08:23:54;29.67;;;13.13;;
33672;SDS011;20011;51.510;9.942;2022-12-15T08:26:25;35.05;;;14.20;;
33672;SDS011;20011;51.510;9.942;2022-12-15T08:29:03;33.53;;;14.48;;
33672;SDS011;20011;51.510;9.942;2022-12-15T08:32:10;34.60;;;14.15;;
33672;SDS011;20011;51.510;9.942;2022-12-15T08:34:48;25.13;;;14.05;;
33672;SDS011;20011;51.510;9.942;2022-12-15T08:37:16;31.38;;;15.00;;
33672;SDS011;20011;51.510;9.942;2022-12-15T08:39:46;31.50;;;14.88;;
33672;SDS011;20011;51.510;9.942;2022-12-15T08:42:14;31.73;;;14.10;;
33672;SDS011;20011;51.510;9.942;2022-12-15T08:44:48;27.42;;;13.90;;
33672;SDS011;20011;51.510;9.942;2022-12-15T08:47:33;27.80;;;14.48;;
33672;SDS011;20011;51.510;9.942;2022-12-15T08:50:00;35.47;;;13.93;;
33672;SDS011;20011;51.510;9.942;2022-12-15T08:52:28;34.38;;;15.32;;
33672;SDS011;20011;51.510;9.942;2022-12-15T08:54:56;28.02;;;14.18;;
33672;SDS011;20011;51.510;9.942;2022-12-15T08:57:29;34.00;;;14.98;;
33672;SDS011;20011;51.510;9.942;2022-12-15T09:02:36;32.03;;;15.25;;
33672;SDS011;20011;51.510;9.942;2022-12-15T09:05:04;26.80;;;14.73;;
33672;SDS011;20011;51.510;9.942;2022-12-15T09:07:35;35.25;;;15.38;;
33672;SDS011;20011;51.510;9.942;2022-12-15T09:12:32;30.35;;;13.88;;
33672;SDS011;20011;51.510;9.942;2022-12-15T09:14:59;31.33;;;14.57;;
33672;SDS011;20011;51.510;9.942;2022-12-15T09:17:27;31.15;;;14.23;;
33672;SDS011;20011;51.510;9.942;2022-12-15T09:19:54;36.88;;;16.38;;
33672;SDS011;20011;51.510;9.942;2022-12-15T09:22:22;36.83;;;15.80;;
33672;SDS011;20011;51.510;9.942;2022-12-15T09:24:49;34.85;;;15.27;;
33672;SDS011;20011;51.510;9.942;2022-12-15T09:27:16;33.28;;;15.63;;
33672;SDS011;20011;51.510;9.942;2022-12-15T09:29:44;36.53;;;14.52;;
33672;SDS011;20011;51.510;9.942;2022-12-15T09:32:11;31.60;;;14.43;;
33672;SDS011;20011;51.510;9.942;2022-12-15T09:34:39;35.88;;;15.40;;
33672;SDS011;20011;51.510;9.942;2022-12-15T09:37:07;31.55;;;16.35;;
33672;SDS011;20011;51.510;9.942;2022-12-15T09:39:37;41.03;;;17.55;;
33672;SDS011;20011;51.510;9.942;2022-12-15T09:42:05;27.88;;;13.80;;
33672;SDS011;20011;51.510;9.942;2022-12-15T09:44:32;27.63;;;14.60;;
33672;SDS011;20011;51.510;9.942;2022-12-15T09:54:56;31.00;;;16.50;;
33672;SDS011;20011;51.510;9.942;2022-12-15T09:57:43;36.03;;;13.50;;
33672;SDS011;20011;51.510;9.942;2022-12-15T10:06:10;32.65;;;15.52;;
33672;SDS011;20011;51.510;9.942;2022-12-15T10:08:53;32.42;;;15.38;;
33672;SDS011;20011;51.510;9.942;2022-12-15T10:11:29;37.60;;;15.38;;
33672;SDS011;20011;51.510;9.942;2022-12-15T10:21:55;33.95;;;16.77;;
33672;SDS011;20011;51.510;9.942;2022-12-15T10:24:23;35.17;;;15.73;;
33672;SDS011;20011;51.510;9.942;2022-12-15T10:27:32;36.78;;;17.60;;
33672;SDS011;20011;51.510;9.942;2022-12-15T10:30:20;30.02;;;15.05;;
33672;SDS011;20011;51.510;9.942;2022-12-15T10:35:22;30.73;;;15.52;;
33672;SDS011;20011;51.510;9.942;2022-12-15T10:37:57;31.92;;;16.15;;
33672;SDS011;20011;51.510;9.942;2022-12-15T10:45:49;33.45;;;15.85;;
33672;SDS011;20011;51.510;9.942;2022-12-15T10:48:27;39.13;;;16.30;;
33672;SDS011;20011;51.510;9.942;2022-12-15T10:56:19;38.97;;;16.08;;
33672;SDS011;20011;51.510;9.942;2022-12-15T11:02:28;28.92;;;15.30;;
33672;SDS011;20011;51.510;9.942;2022-12-15T11:08:51;33.15;;;15.95;;
33672;SDS011;20011;51.510;9.942;2022-12-15T11:14:13;30.38;;;15.68;;
33672;SDS011;20011;51.510;9.942;2022-12-15T11:16:49;27.63;;;14.40;;
33672;SDS011;20011;51.510;9.942;2022-12-15T11:22:49;29.10;;;14.48;;
33672;SDS011;20011;51.510;9.942;2022-12-15T11:25:30;27.25;;;14.93;;
33672;SDS011;20011;51.510;9.942;2022-12-15T11:28:22;32.03;;;15.27;;
33672;SDS011;20011;51.510;9.942;2022-12-15T11:31:26;29.52;;;14.27;;
33672;SDS011;20011;51.510;9.942;2022-12-15T11:33:54;26.65;;;13.63;;
33672;SDS011;20011;51.510;9.942;2022-12-15T11:38:49;25.98;;;14.82;;
33672;SDS011;20011;51.510;9.942;2022-12-15T11:44:26;30.70;;;14.40;;
33672;SDS011;20011;51.510;9.942;2022-12-15T11:50:18;29.05;;;14.88;;
33672;SDS011;20011;51.510;9.942;2022-12-15T11:53:13;28.20;;;14.63;;
33672;SDS011;20011;51.510;9.942;2022-12-15T11:59:09;33.45;;;15.07;;
33672;SDS011;20011;51.510;9.942;2022-12-15T12:04:42;30.80;;;16.00;;
33672;SDS011;20011;51.510;9.942;2022-12-15T12:07:50;33.67;;;15.07;;
33672;SDS011;20011;51.510;9.942;2022-12-15T12:18:21;29.98;;;16.38;;
33672;SDS011;20011;51.510;9.942;2022-12-15T12:24:53;34.20;;;16.48;;
33672;SDS011;20011;51.510;9.942;2022-12-15T12:30:37;36.25;;;17.10;;
33672;SDS011;20011;51.510;9.942;2022-12-15T12:36:10;36.47;;;17.08;;
33672;SDS011;20011;51.510;9.942;2022-12-15T12:38:39;35.33;;;18.02;;
33672;SDS011;20011;51.510;9.942;2022-12-15T12:44:25;34.17;;;16.92;;
33672;SDS011;20011;51.510;9.942;2022-12-15T12:46:54;40.05;;;18.52;;
33672;SDS011;20011;51.510;9.942;2022-12-15T12:52:25;33.35;;;17.17;;
33672;SDS011;20011;51.510;9.942;2022-12-15T12:57:40;37.30;;;17.63;;
33672;SDS011;20011;51.510;9.942;2022-12-15T13:00:13;31.48;;;15.63;;
33672;SDS011;20011;51.510;9.942;2022-12-15T13:05:25;41.95;;;17.77;;
33672;SDS011;20011;51.510;9.942;2022-12-15T13:10:37;29.48;;;16.65;;
33672;SDS011;20011;51.510;9.942;2022-12-15T13:16:18;32.92;;;16.17;;
33672;SDS011;20011;51.510;9.942;2022-12-15T13:18:55;29.17;;;15.73;;
33672;SDS011;20011;51.510;9.942;2022-12-15T13:21:45;38.60;;;16.48;;
33672;SDS011;20011;51.510;9.942;2022-12-15T13:29:34;34.90;;;16.13;;
33672;SDS011;20011;51.510;9.942;2022-12-15T13:34:54;31.83;;;15.25;;
33672;SDS011;20011;51.510;9.942;2022-12-15T13:40:30;29.92;;;15.73;;
33672;SDS011;20011;51.510;9.942;2022-12-15T13:48:17;33.97;;;16.67;;
33672;SDS011;20011;51.510;9.942;2022-12-15T13:53:42;30.90;;;16.67;;
33672;SDS011;20011;51.510;9.942;2022-12-15T13:56:59;34.60;;;17.00;;
33672;SDS011;20011;51.510;9.942;2022-12-15T14:01:53;34.58;;;15.32;;
33672;SDS011;20011;51.510;9.942;2022-12-15T14:04:21;30.77;;;15.68;;
33672;SDS011;20011;51.510;9.942;2022-12-15T14:09:24;30.02;;;15.32;;
33672;SDS011;20011;51.510;9.942;2022-12-15T14:12:14;35.22;;;17.85;;
33672;SDS011;20011;51.510;9.942;2022-12-15T14:14:42;32.33;;;16.30;;
33672;SDS011;20011;51.510;9.942;2022-12-15T14:17:15;35.00;;;16.55;;
33672;SDS011;20011;51.510;9.942;2022-12-15T14:19:45;32.25;;;16.88;;
33672;SDS011;20011;51.510;9.942;2022-12-15T14:22:26;32.95;;;16.70;;
33672;SDS011;20011;51.510;9.942;2022-12-15T14:25:00;31.27;;;16.17;;
33672;SDS011;20011;51.510;9.942;2022-12-15T14:27:49;35.90;;;17.80;;
33672;SDS011;20011;51.510;9.942;2022-12-15T14:33:03;36.72;;;17.65;;
33672;SDS011;20011;51.510;9.942;2022-12-15T14:35:38;34.28;;;17.50;;
33672;SDS011;20011;51.510;9.942;2022-12-15T14:38:16;31.65;;;15.75;;
33672;SDS011;20011;51.510;9.942;2022-12-15T14:40:54;28.70;;;14.95;;
33672;SDS011;20011;51.510;9.942;2022-12-15T14:43:24;34.63;;;16.30;;
33672;SDS011;20011;51.510;9.942;2022-12-15T14:46:06;32.88;;;16.88;;
33672;SDS011;20011;51.510;9.942;2022-12-15T14:48:41;37.28;;;16.83;;
33672;SDS011;20011;51.510;9.942;2022-12-15T14:51:23;30.25;;;15.93;;
33672;SDS011;20011;51.510;9.942;2022-12-15T14:53:56;31.50;;;16.08;;
33672;SDS011;20011;51.510;9.942;2022-12-15T15:05:26;29.23;;;16.27;;
33672;SDS011;20011;51.510;9.942;2022-12-15T15:07:54;37.80;;;16.88;;
33672;SDS011;20011;51.510;9.942;2022-12-15T15:10:23;33.55;;;16.98;;
33672;SDS011;20011;51.510;9.942;2022-12-15T15:12:54;36.42;;;17.75;;
33672;SDS011;20011;51.510;9.942;2022-12-15T15:15:23;33.28;;;17.02;;
33672;SDS011;20011;51.510;9.942;2022-12-15T15:25:47;29.13;;;15.73;;
33672;SDS011;20011;51.510;9.942;2022-12-15T15:28:23;33.20;;;16.50;;
33672;SDS011;20011;51.510;9.942;2022-12-15T15:30:58;29.60;;;15.88;;
33672;SDS011;20011;51.510;9.942;2022-12-15T15:33:31;34.45;;;17.00;;
33672;SDS011;20011;51.510;9.942;2022-12-15T15:35:59;31.77;;;17.40;;
33672;SDS011;20011;51.510;9.942;2022-12-15T15:38:31;34.90;;;15.98;;
33672;SDS011;20011;51.510;9.942;2022-12-15T15:41:07;30.55;;;15.15;;
33672;SDS011;20011;51.510;9.942;2022-12-15T15:43:47;40.10;;;16.92;;
33672;SDS011;20011;51.510;9.942;2022-12-15T15:46:17;38.25;;;18.38;;
33672;SDS011;20011;51.510;9.942;2022-12-15T15:48:48;36.45;;;18.50;;
33672;SDS011;20011;51.510;9.942;2022-12-15T15:51:20;40.08;;;19.85;;
33672;SDS011;20011;51.510;9.942;2022-12-15T15:53:49;40.35;;;19.17;;
33672;SDS011;20011;51.510;9.942;2022-12-15T15:56:17;39.42;;;19.55;;
33672;SDS011;20011;51.510;9.942;2022-12-15T15:58:44;38.85;;;19.55;;
33672;SDS011;20011;51.510;9.942;2022-12-15T16:01:12;34.55;;;19.52;;
33672;SDS011;20011;51.510;9.942;2022-12-15T16:03:39;30.23;;;16.73;;
33672;SDS011;20011;51.510;9.942;2022-12-15T16:06:13;34.08;;;16.88;;
33672;SDS011;20011;51.510;9.942;2022-12-15T16:08:42;35.55;;;18.05;;
33672;SDS011;20011;51.510;9.942;2022-12-15T16:11:10;36.70;;;18.30;;
33672;SDS011;20011;51.510;9.942;2022-12-15T16:13:38;30.67;;;16.25;;
33672;SDS011;20011;51.510;9.942;2022-12-15T16:16:05;37.53;;;18.38;;
33672;SDS011;20011;51.510;9.942;2022-12-15T16:18:40;35.22;;;18.15;;
33672;SDS011;20011;51.510;9.942;2022-12-15T16:21:07;36.42;;;16.92;;
33672;SDS011;20011;51.510;9.942;2022-12-15T16:23:37;32.63;;;17.40;;
33672;SDS011;20011;51.510;9.942;2022-12-15T16:26:04;35.72;;;17.55;;
33672;SDS011;20011;51.510;9.942;2022-12-15T16:28:32;35.97;;;16.65;;
33672;SDS011;20011;51.510;9.942;2022-12-15T16:30:59;32.58;;;16.60;;
33672;SDS011;20011;51.510;9.942;2022-12-15T16:33:27;35.20;;;16.67;;
33672;SDS011;20011;51.510;9.942;2022-12-15T16:35:53;43.55;;;17.00;;
33672;SDS011;20011;51.510;9.942;2022-12-15T16:40:48;44.22;;;20.30;;
33672;SDS011;20011;51.510;9.942;2022-12-15T16:43:16;50.08;;;21.85;;
33672;SDS011;20011;51.510;9.942;2022-12-15T16:45:45;52.45;;;23.05;;
33672;SDS011;20011;51.510;9.942;2022-12-15T16:48:15;46.05;;;21.45;;
33672;SDS011;20011;51.510;9.942;2022-12-15T16:50:43;45.92;;;20.05;;
33672;SDS011;20011;51.510;9.942;2022-12-15T16:53:32;40.50;;;19.33;;
33672;SDS011;20011;51.510;9.942;2022-12-15T16:56:03;44.33;;;17.50;;
33672;SDS011;20011;51.510;9.942;2022-12-15T16:58:33;44.63;;;20.75;;
33672;SDS011;20011;51.510;9.942;2022-12-15T17:01:01;40.17;;;18.63;;
33672;SDS011;20011;51.510;9.942;2022-12-15T17:03:29;37.83;;;18.38;;
33672;SDS011;20011;51.510;9.942;2022-12-15T17:06:00;40.00;;;18.52;;
33672;SDS011;20011;51.510;9.942;2022-12-15T17:08:41;38.95;;;19.77;;
33672;SDS011;20011;51.510;9.942;2022-12-15T17:11:18;37.47;;;18.58;;
33672;SDS011;20011;51.510;9.942;2022-12-15T17:13:47;43.70;;;21.25;;
33672;SDS011;20011;51.510;9.942;2022-12-15T17:16:17;41.65;;;19.95;;
33672;SDS011;20011;51.510;9.942;2022-12-15T17:18:46;41.05;;;18.60;;
33672;SDS011;20011;51.510;9.942;2022-12-15T17:21:22;34.25;;;17.55;;
33672;SDS011;20011;51.510;9.942;2022-12-15T17:24:03;36.70;;;18.55;;
33672;SDS011;20011;51.510;9.942;2022-12-15T17:26:34;41.22;;;19.45;;
33672;SDS011;20011;51.510;9.942;2022-12-15T17:29:05;41.35;;;18.65;;
33672;SDS011;20011;51.510;9.942;2022-12-15T17:31:34;38.90;;;18.77;;
33672;SDS011;20011;51.510;9.942;2022-12-15T17:36:49;31.27;;;14.80;;
33672;SDS011;20011;51.510;9.942;2022-12-15T17:39:17;29.25;;;15.77;;
33672;SDS011;20011;51.510;9.942;2022-12-15T17:41:45;33.47;;;14.75;;
33672;SDS011;20011;51.510;9.942;2022-12-15T17:44:30;33.70;;;15.10;;
33672;SDS011;20011;51.510;9.942;2022-12-15T17:49:56;35.95;;;16.50;;
33672;SDS011;20011;51.510;9.942;2022-12-15T17:54:54;39.30;;;15.02;;
33672;SDS011;20011;51.510;9.942;2022-12-15T17:57:22;37.05;;;16.60;;
33672;SDS011;20011;51.510;9.942;2022-12-15T17:59:49;30.08;;;15.15;;
33672;SDS011;20011;51.510;9.942;2022-12-15T18:02:16;31.88;;;14.45;;
33672;SDS011;20011;51.510;9.942;2022-12-15T18:04:43;32.70;;;15.70;;
33672;SDS011;20011;51.510;9.942;2022-12-15T18:07:20;33.83;;;17.10;;
33672;SDS011;20011;51.510;9.942;2022-12-15T18:09:49;29.38;;;14.30;;
33672;SDS011;20011;51.510;9.942;2022-12-15T18:12:21;34.22;;;14.38;;
33672;SDS011;20011;51.510;9.942;2022-12-15T18:14:50;29.55;;;14.18;;
33672;SDS011;20011;51.510;9.942;2022-12-15T18:17:17;29.10;;;14.32;;
33672;SDS011;20011;51.510;9.942;2022-12-15T18:19:45;24.85;;;12.85;;